Terminal Aerodrome Forecast
Issued by NWS

Home | Current Version | Previous Version | Text Only | Print | Product List | Glossary On
Versions: 1 2 3 4 5 6 7 8 9 10 11 12 13 14
000
FTUS41 KBTV 280500
TAFMPV
TAF
KMPV 280524Z 2806/2906 VRB03KT P6SM SCT100
     FM281400 32010KT P6SM SCT050
     FM281700 32010G20KT P6SM BKN040
     FM290100 VRB03KT P6SM SKC=

USA.gov is the U.S. government's official web portal to all federal, state and local government web resources and services.